NO-0030 weather

Ose Airfield
Aust-Agder, Norway

Public forecast

Using degrees Celsius for public forecast. Weather courtesy of forecast.io.

Closest aviation weather report (METAR) to Ose Airfield

Closest report is Kristiansand Airport, 45.8 nm (84.9 km) SSE. Retrieved 2020/06/01 23:50 UTC (18 minutes ago):

ENCN 012350Z AUTO 05004KT 9999 NCD 10/08 Q1023

Closest aviation forecast (TAF) to Ose Airfield

Forecast is more than 12 hours old.

Closest forecast is Kristiansand Airport, 45.8 nm (84.9 km) SSE. Retrieved 2016/05/06 12:39 UTC (4 years ago):

TAF TAF ENCN 061100Z 0612/0712 14008KT 9999 FEW040